sensor_id;sensor_type;location;lat;lon;timestamp;P1;durP1;ratioP1;P2;durP2;ratioP2
10939;SDS011;5522;42.696;23.494;2024-01-07T00:01:18;8.90;;;6.25;;
10939;SDS011;5522;42.696;23.494;2024-01-07T00:03:45;12.43;;;8.38;;
10939;SDS011;5522;42.696;23.494;2024-01-07T00:06:12;15.13;;;8.88;;
10939;SDS011;5522;42.696;23.494;2024-01-07T00:08:39;12.95;;;7.90;;
10939;SDS011;5522;42.696;23.494;2024-01-07T00:11:07;23.25;;;11.43;;
10939;SDS011;5522;42.696;23.494;2024-01-07T00:13:34;23.40;;;11.65;;
10939;SDS011;5522;42.696;23.494;2024-01-07T00:16:01;41.25;;;22.17;;
10939;SDS011;5522;42.696;23.494;2024-01-07T00:18:28;39.38;;;20.92;;
10939;SDS011;5522;42.696;23.494;2024-01-07T00:20:55;35.60;;;21.38;;
10939;SDS011;5522;42.696;23.494;2024-01-07T00:23:22;43.95;;;24.48;;
10939;SDS011;5522;42.696;23.494;2024-01-07T00:25:49;46.53;;;29.70;;
10939;SDS011;5522;42.696;23.494;2024-01-07T00:28:17;22.17;;;14.35;;
10939;SDS011;5522;42.696;23.494;2024-01-07T00:30:44;20.65;;;11.75;;
10939;SDS011;5522;42.696;23.494;2024-01-07T00:33:11;20.42;;;11.55;;
10939;SDS011;5522;42.696;23.494;2024-01-07T00:35:38;16.80;;;11.02;;
10939;SDS011;5522;42.696;23.494;2024-01-07T00:38:04;32.00;;;20.73;;
10939;SDS011;5522;42.696;23.494;2024-01-07T00:40:31;33.70;;;18.73;;
10939;SDS011;5522;42.696;23.494;2024-01-07T00:42:58;37.80;;;19.80;;
10939;SDS011;5522;42.696;23.494;2024-01-07T00:45:26;28.73;;;16.70;;
10939;SDS011;5522;42.696;23.494;2024-01-07T00:47:53;25.33;;;17.35;;
10939;SDS011;5522;42.696;23.494;2024-01-07T00:50:20;29.92;;;18.23;;
10939;SDS011;5522;42.696;23.494;2024-01-07T00:52:47;28.42;;;18.35;;
10939;SDS011;5522;42.696;23.494;2024-01-07T00:55:14;32.95;;;19.65;;
10939;SDS011;5522;42.696;23.494;2024-01-07T00:57:41;29.33;;;20.13;;
10939;SDS011;5522;42.696;23.494;2024-01-07T01:00:08;29.23;;;20.17;;
10939;SDS011;5522;42.696;23.494;2024-01-07T01:02:38;29.42;;;19.17;;
10939;SDS011;5522;42.696;23.494;2024-01-07T01:05:05;28.92;;;16.65;;
10939;SDS011;5522;42.696;23.494;2024-01-07T01:07:32;27.73;;;15.98;;
10939;SDS011;5522;42.696;23.494;2024-01-07T01:09:59;23.63;;;15.57;;
10939;SDS011;5522;42.696;23.494;2024-01-07T01:12:25;28.08;;;16.95;;
10939;SDS011;5522;42.696;23.494;2024-01-07T01:14:52;24.38;;;15.77;;
10939;SDS011;5522;42.696;23.494;2024-01-07T01:17:19;27.50;;;16.05;;
10939;SDS011;5522;42.696;23.494;2024-01-07T01:19:47;25.55;;;16.23;;
10939;SDS011;5522;42.696;23.494;2024-01-07T01:22:14;22.98;;;16.08;;
10939;SDS011;5522;42.696;23.494;2024-01-07T01:24:41;24.80;;;17.45;;
10939;SDS011;5522;42.696;23.494;2024-01-07T01:27:08;28.52;;;17.75;;
10939;SDS011;5522;42.696;23.494;2024-01-07T01:29:36;28.23;;;16.50;;
10939;SDS011;5522;42.696;23.494;2024-01-07T01:32:02;29.52;;;17.67;;
10939;SDS011;5522;42.696;23.494;2024-01-07T01:34:31;25.50;;;16.23;;
10939;SDS011;5522;42.696;23.494;2024-01-07T01:36:59;26.88;;;16.23;;
10939;SDS011;5522;42.696;23.494;2024-01-07T01:39:26;27.30;;;16.52;;
10939;SDS011;5522;42.696;23.494;2024-01-07T01:41:54;26.10;;;15.93;;
10939;SDS011;5522;42.696;23.494;2024-01-07T01:44:23;26.13;;;15.50;;
10939;SDS011;5522;42.696;23.494;2024-01-07T01:46:52;26.20;;;16.33;;
10939;SDS011;5522;42.696;23.494;2024-01-07T01:49:19;27.83;;;17.65;;
10939;SDS011;5522;42.696;23.494;2024-01-07T01:51:46;34.17;;;17.60;;
10939;SDS011;5522;42.696;23.494;2024-01-07T01:54:16;30.35;;;16.95;;
10939;SDS011;5522;42.696;23.494;2024-01-07T01:56:43;28.75;;;17.40;;
10939;SDS011;5522;42.696;23.494;2024-01-07T01:59:10;26.88;;;17.25;;
10939;SDS011;5522;42.696;23.494;2024-01-07T02:01:38;35.13;;;21.48;;
10939;SDS011;5522;42.696;23.494;2024-01-07T02:04:05;36.38;;;21.23;;
10939;SDS011;5522;42.696;23.494;2024-01-07T02:06:32;36.50;;;19.50;;
10939;SDS011;5522;42.696;23.494;2024-01-07T02:08:59;30.45;;;19.88;;
10939;SDS011;5522;42.696;23.494;2024-01-07T02:11:27;32.78;;;18.45;;
10939;SDS011;5522;42.696;23.494;2024-01-07T02:13:54;30.42;;;18.10;;
10939;SDS011;5522;42.696;23.494;2024-01-07T02:16:21;30.50;;;18.88;;
10939;SDS011;5522;42.696;23.494;2024-01-07T02:18:48;29.33;;;18.58;;
10939;SDS011;5522;42.696;23.494;2024-01-07T02:21:14;29.17;;;19.48;;
10939;SDS011;5522;42.696;23.494;2024-01-07T02:23:41;34.58;;;19.05;;
10939;SDS011;5522;42.696;23.494;2024-01-07T02:26:11;29.27;;;19.35;;
10939;SDS011;5522;42.696;23.494;2024-01-07T02:28:37;27.02;;;19.45;;
10939;SDS011;5522;42.696;23.494;2024-01-07T02:31:04;34.08;;;19.95;;
10939;SDS011;5522;42.696;23.494;2024-01-07T02:33:31;30.77;;;19.38;;
10939;SDS011;5522;42.696;23.494;2024-01-07T02:35:58;31.05;;;19.98;;
10939;SDS011;5522;42.696;23.494;2024-01-07T02:38:25;33.67;;;20.55;;
10939;SDS011;5522;42.696;23.494;2024-01-07T02:40:52;32.00;;;21.63;;
10939;SDS011;5522;42.696;23.494;2024-01-07T02:43:20;35.50;;;21.52;;
10939;SDS011;5522;42.696;23.494;2024-01-07T02:45:47;33.15;;;21.73;;
10939;SDS011;5522;42.696;23.494;2024-01-07T02:48:13;34.22;;;23.45;;
10939;SDS011;5522;42.696;23.494;2024-01-07T02:50:40;32.42;;;21.55;;
10939;SDS011;5522;42.696;23.494;2024-01-07T02:53:07;36.20;;;23.10;;
10939;SDS011;5522;42.696;23.494;2024-01-07T02:55:36;34.10;;;20.90;;
10939;SDS011;5522;42.696;23.494;2024-01-07T02:58:02;35.03;;;23.20;;
10939;SDS011;5522;42.696;23.494;2024-01-07T03:00:31;29.75;;;19.35;;
10939;SDS011;5522;42.696;23.494;2024-01-07T03:02:58;29.75;;;20.10;;
10939;SDS011;5522;42.696;23.494;2024-01-07T03:05:24;32.47;;;19.77;;
10939;SDS011;5522;42.696;23.494;2024-01-07T03:07:52;27.02;;;17.95;;
10939;SDS011;5522;42.696;23.494;2024-01-07T03:10:19;28.00;;;18.02;;
10939;SDS011;5522;42.696;23.494;2024-01-07T03:12:46;26.55;;;18.70;;
10939;SDS011;5522;42.696;23.494;2024-01-07T03:15:13;25.90;;;17.90;;
10939;SDS011;5522;42.696;23.494;2024-01-07T03:17:41;31.67;;;20.75;;
10939;SDS011;5522;42.696;23.494;2024-01-07T03:20:08;34.80;;;21.85;;
10939;SDS011;5522;42.696;23.494;2024-01-07T03:22:36;39.47;;;22.83;;
10939;SDS011;5522;42.696;23.494;2024-01-07T03:25:03;27.92;;;18.40;;
10939;SDS011;5522;42.696;23.494;2024-01-07T03:27:30;29.45;;;19.13;;
10939;SDS011;5522;42.696;23.494;2024-01-07T03:29:57;29.08;;;17.27;;
10939;SDS011;5522;42.696;23.494;2024-01-07T03:32:24;24.45;;;15.40;;
10939;SDS011;5522;42.696;23.494;2024-01-07T03:34:52;21.65;;;14.88;;
10939;SDS011;5522;42.696;23.494;2024-01-07T03:37:19;27.38;;;17.08;;
10939;SDS011;5522;42.696;23.494;2024-01-07T03:39:46;23.10;;;17.30;;
10939;SDS011;5522;42.696;23.494;2024-01-07T03:42:14;26.33;;;16.10;;
10939;SDS011;5522;42.696;23.494;2024-01-07T03:44:41;23.95;;;15.93;;
10939;SDS011;5522;42.696;23.494;2024-01-07T03:47:07;23.33;;;15.15;;
10939;SDS011;5522;42.696;23.494;2024-01-07T03:49:35;24.70;;;15.73;;
10939;SDS011;5522;42.696;23.494;2024-01-07T03:52:04;23.85;;;14.70;;
10939;SDS011;5522;42.696;23.494;2024-01-07T03:54:32;26.60;;;15.10;;
10939;SDS011;5522;42.696;23.494;2024-01-07T03:56:59;25.73;;;14.18;;
10939;SDS011;5522;42.696;23.494;2024-01-07T03:59:25;22.88;;;14.45;;
10939;SDS011;5522;42.696;23.494;2024-01-07T04:01:53;18.67;;;13.20;;
10939;SDS011;5522;42.696;23.494;2024-01-07T04:04:20;22.70;;;13.70;;
10939;SDS011;5522;42.696;23.494;2024-01-07T04:06:47;19.05;;;13.75;;
10939;SDS011;5522;42.696;23.494;2024-01-07T04:09:15;22.98;;;15.07;;
10939;SDS011;5522;42.696;23.494;2024-01-07T04:11:42;42.83;;;25.77;;
10939;SDS011;5522;42.696;23.494;2024-01-07T04:14:09;49.28;;;30.92;;
10939;SDS011;5522;42.696;23.494;2024-01-07T04:16:36;62.97;;;41.63;;
10939;SDS011;5522;42.696;23.494;2024-01-07T04:19:02;55.05;;;37.50;;
10939;SDS011;5522;42.696;23.494;2024-01-07T04:21:29;41.92;;;27.95;;
10939;SDS011;5522;42.696;23.494;2024-01-07T04:23:56;32.97;;;20.50;;
10939;SDS011;5522;42.696;23.494;2024-01-07T04:26:24;33.28;;;21.20;;
10939;SDS011;5522;42.696;23.494;2024-01-07T04:28:51;37.65;;;25.35;;
10939;SDS011;5522;42.696;23.494;2024-01-07T04:31:18;34.72;;;23.42;;
10939;SDS011;5522;42.696;23.494;2024-01-07T04:33:44;30.35;;;21.23;;
10939;SDS011;5522;42.696;23.494;2024-01-07T04:36:11;27.48;;;16.58;;
10939;SDS011;5522;42.696;23.494;2024-01-07T04:38:38;24.38;;;16.92;;
10939;SDS011;5522;42.696;23.494;2024-01-07T04:41:05;24.05;;;15.60;;
10939;SDS011;5522;42.696;23.494;2024-01-07T04:43:34;25.02;;;14.95;;
10939;SDS011;5522;42.696;23.494;2024-01-07T04:46:01;23.00;;;15.48;;
10939;SDS011;5522;42.696;23.494;2024-01-07T04:48:28;19.58;;;13.52;;
10939;SDS011;5522;42.696;23.494;2024-01-07T04:50:54;14.98;;;9.85;;
10939;SDS011;5522;42.696;23.494;2024-01-07T04:53:21;14.75;;;11.10;;
10939;SDS011;5522;42.696;23.494;2024-01-07T04:55:48;20.02;;;13.40;;
10939;SDS011;5522;42.696;23.494;2024-01-07T04:58:15;18.63;;;12.85;;
10939;SDS011;5522;42.696;23.494;2024-01-07T05:00:43;20.58;;;12.73;;
10939;SDS011;5522;42.696;23.494;2024-01-07T05:03:10;21.90;;;12.65;;
10939;SDS011;5522;42.696;23.494;2024-01-07T05:05:36;18.55;;;10.68;;
10939;SDS011;5522;42.696;23.494;2024-01-07T05:08:04;12.88;;;9.63;;
10939;SDS011;5522;42.696;23.494;2024-01-07T05:10:31;14.75;;;8.77;;
10939;SDS011;5522;42.696;23.494;2024-01-07T05:12:58;14.23;;;8.73;;
10939;SDS011;5522;42.696;23.494;2024-01-07T05:15:30;11.63;;;8.07;;
10939;SDS011;5522;42.696;23.494;2024-01-07T05:17:58;13.63;;;8.68;;
10939;SDS011;5522;42.696;23.494;2024-01-07T05:20:25;19.23;;;11.70;;
10939;SDS011;5522;42.696;23.494;2024-01-07T05:22:51;19.67;;;11.60;;
10939;SDS011;5522;42.696;23.494;2024-01-07T05:25:18;13.27;;;10.73;;
10939;SDS011;5522;42.696;23.494;2024-01-07T05:27:45;13.45;;;10.13;;
10939;SDS011;5522;42.696;23.494;2024-01-07T05:30:12;15.90;;;7.97;;
10939;SDS011;5522;42.696;23.494;2024-01-07T05:32:39;9.57;;;6.57;;
10939;SDS011;5522;42.696;23.494;2024-01-07T05:35:07;7.28;;;5.63;;
10939;SDS011;5522;42.696;23.494;2024-01-07T05:37:34;10.65;;;7.25;;
10939;SDS011;5522;42.696;23.494;2024-01-07T05:40:01;14.43;;;10.20;;
10939;SDS011;5522;42.696;23.494;2024-01-07T05:42:28;14.85;;;10.10;;
10939;SDS011;5522;42.696;23.494;2024-01-07T05:44:55;17.90;;;11.13;;
10939;SDS011;5522;42.696;23.494;2024-01-07T05:47:22;19.02;;;12.82;;
10939;SDS011;5522;42.696;23.494;2024-01-07T05:49:48;16.38;;;11.80;;
10939;SDS011;5522;42.696;23.494;2024-01-07T05:52:18;19.50;;;11.50;;
10939;SDS011;5522;42.696;23.494;2024-01-07T05:54:45;19.08;;;11.88;;
10939;SDS011;5522;42.696;23.494;2024-01-07T05:57:12;20.67;;;13.43;;
10939;SDS011;5522;42.696;23.494;2024-01-07T05:59:38;20.27;;;12.07;;
10939;SDS011;5522;42.696;23.494;2024-01-07T06:02:05;23.50;;;14.68;;
10939;SDS011;5522;42.696;23.494;2024-01-07T06:04:32;29.67;;;14.65;;
10939;SDS011;5522;42.696;23.494;2024-01-07T06:06:59;29.48;;;19.70;;
10939;SDS011;5522;42.696;23.494;2024-01-07T06:09:27;24.92;;;18.38;;
10939;SDS011;5522;42.696;23.494;2024-01-07T06:11:54;34.20;;;20.80;;
10939;SDS011;5522;42.696;23.494;2024-01-07T06:14:21;36.72;;;22.88;;
10939;SDS011;5522;42.696;23.494;2024-01-07T06:16:47;24.45;;;16.77;;
10939;SDS011;5522;42.696;23.494;2024-01-07T06:19:16;24.50;;;15.43;;
10939;SDS011;5522;42.696;23.494;2024-01-07T06:21:43;23.15;;;14.95;;
10939;SDS011;5522;42.696;23.494;2024-01-07T06:24:10;26.35;;;20.00;;
10939;SDS011;5522;42.696;23.494;2024-01-07T06:26:38;25.20;;;17.02;;
10939;SDS011;5522;42.696;23.494;2024-01-07T06:29:05;24.85;;;15.70;;
10939;SDS011;5522;42.696;23.494;2024-01-07T06:31:34;26.77;;;17.95;;
10939;SDS011;5522;42.696;23.494;2024-01-07T06:34:01;32.42;;;21.33;;
10939;SDS011;5522;42.696;23.494;2024-01-07T06:36:28;34.20;;;20.25;;
10939;SDS011;5522;42.696;23.494;2024-01-07T06:38:55;33.08;;;22.58;;
10939;SDS011;5522;42.696;23.494;2024-01-07T06:41:21;32.15;;;19.67;;
10939;SDS011;5522;42.696;23.494;2024-01-07T06:43:50;33.00;;;21.60;;
10939;SDS011;5522;42.696;23.494;2024-01-07T06:46:19;87.00;;;54.45;;
10939;SDS011;5522;42.696;23.494;2024-01-07T06:48:46;73.47;;;45.90;;
10939;SDS011;5522;42.696;23.494;2024-01-07T06:51:13;58.45;;;38.45;;
10939;SDS011;5522;42.696;23.494;2024-01-07T06:53:40;50.03;;;33.33;;
10939;SDS011;5522;42.696;23.494;2024-01-07T06:56:07;51.47;;;35.20;;
10939;SDS011;5522;42.696;23.494;2024-01-07T06:58:34;107.93;;;59.38;;
10939;SDS011;5522;42.696;23.494;2024-01-07T07:01:02;81.65;;;46.00;;
10939;SDS011;5522;42.696;23.494;2024-01-07T07:03:29;60.50;;;32.40;;
10939;SDS011;5522;42.696;23.494;2024-01-07T07:05:56;38.38;;;25.73;;
10939;SDS011;5522;42.696;23.494;2024-01-07T07:08:23;35.40;;;25.35;;
10939;SDS011;5522;42.696;23.494;2024-01-07T07:10:49;38.47;;;26.27;;
10939;SDS011;5522;42.696;23.494;2024-01-07T07:13:16;30.15;;;20.95;;
10939;SDS011;5522;42.696;23.494;2024-01-07T07:15:43;33.63;;;23.20;;
10939;SDS011;5522;42.696;23.494;2024-01-07T07:18:11;92.55;;;41.00;;
10939;SDS011;5522;42.696;23.494;2024-01-07T07:20:38;395.75;;;159.65;;
10939;SDS011;5522;42.696;23.494;2024-01-07T07:23:05;54.45;;;30.00;;
10939;SDS011;5522;42.696;23.494;2024-01-07T07:25:32;43.50;;;24.95;;
10939;SDS011;5522;42.696;23.494;2024-01-07T07:27:58;52.25;;;32.88;;
10939;SDS011;5522;42.696;23.494;2024-01-07T07:30:25;47.80;;;35.83;;
10939;SDS011;5522;42.696;23.494;2024-01-07T07:32:52;33.85;;;25.98;;
10939;SDS011;5522;42.696;23.494;2024-01-07T07:35:20;23.90;;;16.92;;
10939;SDS011;5522;42.696;23.494;2024-01-07T07:37:47;37.50;;;26.67;;
10939;SDS011;5522;42.696;23.494;2024-01-07T07:40:13;15.00;;;11.40;;
10939;SDS011;5522;42.696;23.494;2024-01-07T07:42:40;13.10;;;10.05;;
10939;SDS011;5522;42.696;23.494;2024-01-07T07:45:07;71.05;;;37.97;;
10939;SDS011;5522;42.696;23.494;2024-01-07T07:47:35;23.88;;;15.77;;
10939;SDS011;5522;42.696;23.494;2024-01-07T07:50:02;11.40;;;8.73;;
10939;SDS011;5522;42.696;23.494;2024-01-07T07:52:30;38.47;;;28.40;;
10939;SDS011;5522;42.696;23.494;2024-01-07T07:54:58;11.52;;;9.15;;
10939;SDS011;5522;42.696;23.494;2024-01-07T07:57:24;13.82;;;8.93;;
10939;SDS011;5522;42.696;23.494;2024-01-07T07:59:51;11.27;;;8.15;;
10939;SDS011;5522;42.696;23.494;2024-01-07T08:02:18;38.95;;;25.75;;
10939;SDS011;5522;42.696;23.494;2024-01-07T08:04:46;12.65;;;9.57;;
10939;SDS011;5522;42.696;23.494;2024-01-07T08:07:13;26.73;;;18.30;;
10939;SDS011;5522;42.696;23.494;2024-01-07T08:09:41;12.85;;;10.68;;
10939;SDS011;5522;42.696;23.494;2024-01-07T08:12:08;20.13;;;15.40;;
10939;SDS011;5522;42.696;23.494;2024-01-07T08:14:37;52.83;;;31.85;;
10939;SDS011;5522;42.696;23.494;2024-01-07T08:17:06;8.88;;;7.00;;
10939;SDS011;5522;42.696;23.494;2024-01-07T08:19:32;7.72;;;7.03;;
10939;SDS011;5522;42.696;23.494;2024-01-07T08:21:59;13.55;;;11.15;;
10939;SDS011;5522;42.696;23.494;2024-01-07T08:24:26;10.18;;;8.75;;
10939;SDS011;5522;42.696;23.494;2024-01-07T08:26:54;18.23;;;13.60;;
10939;SDS011;5522;42.696;23.494;2024-01-07T08:29:21;11.60;;;9.05;;
10939;SDS011;5522;42.696;23.494;2024-01-07T08:31:48;7.20;;;6.47;;
10939;SDS011;5522;42.696;23.494;2024-01-07T08:34:15;8.05;;;6.80;;
10939;SDS011;5522;42.696;23.494;2024-01-07T08:36:41;8.20;;;6.88;;
10939;SDS011;5522;42.696;23.494;2024-01-07T08:39:08;6.97;;;6.28;;
10939;SDS011;5522;42.696;23.494;2024-01-07T08:41:36;7.00;;;6.38;;
10939;SDS011;5522;42.696;23.494;2024-01-07T08:44:04;9.30;;;7.15;;
10939;SDS011;5522;42.696;23.494;2024-01-07T08:46:31;8.02;;;7.22;;
10939;SDS011;5522;42.696;23.494;2024-01-07T08:48:58;8.50;;;7.45;;
10939;SDS011;5522;42.696;23.494;2024-01-07T08:51:25;6.10;;;5.60;;
10939;SDS011;5522;42.696;23.494;2024-01-07T08:53:52;6.80;;;5.68;;
10939;SDS011;5522;42.696;23.494;2024-01-07T08:56:18;4.40;;;4.10;;
10939;SDS011;5522;42.696;23.494;2024-01-07T08:58:48;1.70;;;1.65;;
10939;SDS011;5522;42.696;23.494;2024-01-07T09:01:16;1.30;;;1.20;;
10939;SDS011;5522;42.696;23.494;2024-01-07T09:03:43;3.28;;;2.03;;
10939;SDS011;5522;42.696;23.494;2024-01-07T09:06:10;1.10;;;1.05;;
10939;SDS011;5522;42.696;23.494;2024-01-07T09:08:37;2.63;;;0.75;;
10939;SDS011;5522;42.696;23.494;2024-01-07T09:11:04;1.35;;;0.30;;
10939;SDS011;5522;42.696;23.494;2024-01-07T09:13:33;3.70;;;1.50;;
10939;SDS011;5522;42.696;23.494;2024-01-07T09:16:00;6.20;;;3.10;;
10939;SDS011;5522;42.696;23.494;2024-01-07T09:18:28;14.93;;;6.13;;
10939;SDS011;5522;42.696;23.494;2024-01-07T09:20:55;2.47;;;0.50;;
10939;SDS011;5522;42.696;23.494;2024-01-07T09:23:23;4.28;;;3.83;;
10939;SDS011;5522;42.696;23.494;2024-01-07T09:25:49;20.77;;;9.23;;
10939;SDS011;5522;42.696;23.494;2024-01-07T09:28:16;19.35;;;8.95;;
10939;SDS011;5522;42.696;23.494;2024-01-07T09:30:43;1.58;;;0.90;;
10939;SDS011;5522;42.696;23.494;2024-01-07T09:33:10;7.13;;;2.17;;
10939;SDS011;5522;42.696;23.494;2024-01-07T09:35:38;1.33;;;0.60;;
10939;SDS011;5522;42.696;23.494;2024-01-07T09:38:05;6.00;;;2.30;;
10939;SDS011;5522;42.696;23.494;2024-01-07T09:40:32;1.48;;;0.57;;
10939;SDS011;5522;42.696;23.494;2024-01-07T09:42:59;3.20;;;1.30;;
10939;SDS011;5522;42.696;23.494;2024-01-07T09:45:26;1.55;;;0.85;;
10939;SDS011;5522;42.696;23.494;2024-01-07T09:47:55;1.83;;;0.82;;
10939;SDS011;5522;42.696;23.494;2024-01-07T09:50:22;3.00;;;0.95;;
10939;SDS011;5522;42.696;23.494;2024-01-07T09:52:52;0.40;;;0.40;;
10939;SDS011;5522;42.696;23.494;2024-01-07T09:55:26;1.75;;;0.50;;
10939;SDS011;5522;42.696;23.494;2024-01-07T09:57:54;1.45;;;0.30;;
10939;SDS011;5522;42.696;23.494;2024-01-07T10:00:21;28.73;;;7.13;;
10939;SDS011;5522;42.696;23.494;2024-01-07T10:02:48;2.45;;;0.45;;
10939;SDS011;5522;42.696;23.494;2024-01-07T10:05:15;0.63;;;0.40;;
10939;SDS011;5522;42.696;23.494;2024-01-07T10:07:42;1.65;;;0.30;;
10939;SDS011;5522;42.696;23.494;2024-01-07T10:10:14;5.15;;;3.65;;
10939;SDS011;5522;42.696;23.494;2024-01-07T10:12:43;7.00;;;3.00;;
10939;SDS011;5522;42.696;23.494;2024-01-07T10:15:20;5.75;;;3.35;;
10939;SDS011;5522;42.696;23.494;2024-01-07T10:17:50;1.70;;;1.25;;
10939;SDS011;5522;42.696;23.494;2024-01-07T10:20:21;2.00;;;1.20;;
10939;SDS011;5522;42.696;23.494;2024-01-07T10:22:49;7.22;;;2.95;;
10939;SDS011;5522;42.696;23.494;2024-01-07T10:25:20;4.53;;;1.92;;
10939;SDS011;5522;42.696;23.494;2024-01-07T10:27:49;22.92;;;8.70;;
10939;SDS011;5522;42.696;23.494;2024-01-07T10:30:20;27.13;;;10.45;;
10939;SDS011;5522;42.696;23.494;2024-01-07T10:32:49;2.97;;;2.63;;
10939;SDS011;5522;42.696;23.494;2024-01-07T10:35:32;4.53;;;3.85;;
10939;SDS011;5522;42.696;23.494;2024-01-07T10:38:00;2.97;;;2.65;;
10939;SDS011;5522;42.696;23.494;2024-01-07T10:40:29;2.85;;;2.65;;
10939;SDS011;5522;42.696;23.494;2024-01-07T10:43:00;8.40;;;4.70;;
10939;SDS011;5522;42.696;23.494;2024-01-07T10:45:29;22.00;;;16.90;;
10939;SDS011;5522;42.696;23.494;2024-01-07T10:47:59;8.20;;;2.42;;
10939;SDS011;5522;42.696;23.494;2024-01-07T10:50:31;3.78;;;2.05;;
10939;SDS011;5522;42.696;23.494;2024-01-07T10:53:02;2.90;;;1.83;;
10939;SDS011;5522;42.696;23.494;2024-01-07T10:55:39;7.18;;;3.30;;
10939;SDS011;5522;42.696;23.494;2024-01-07T10:58:20;3.53;;;1.40;;
10939;SDS011;5522;42.696;23.494;2024-01-07T11:00:51;4.97;;;1.30;;
10939;SDS011;5522;42.696;23.494;2024-01-07T11:03:24;2.88;;;1.52;;
10939;SDS011;5522;42.696;23.494;2024-01-07T11:06:05;2.65;;;2.38;;
10939;SDS011;5522;42.696;23.494;2024-01-07T11:08:46;6.50;;;1.10;;
10939;SDS011;5522;42.696;23.494;2024-01-07T11:11:36;3.55;;;0.90;;
10939;SDS011;5522;42.696;23.494;2024-01-07T11:14:10;11.77;;;6.97;;
10939;SDS011;5522;42.696;23.494;2024-01-07T11:17:11;0.90;;;0.80;;
10939;SDS011;5522;42.696;23.494;2024-01-07T11:19:38;1.83;;;0.63;;
10939;SDS011;5522;42.696;23.494;2024-01-07T11:22:21;1.67;;;0.77;;
10939;SDS011;5522;42.696;23.494;2024-01-07T11:24:50;6.28;;;2.95;;
10939;SDS011;5522;42.696;23.494;2024-01-07T11:27:20;2.92;;;0.88;;
10939;SDS011;5522;42.696;23.494;2024-01-07T11:29:52;4.50;;;0.95;;
10939;SDS011;5522;42.696;23.494;2024-01-07T11:32:29;3.42;;;1.13;;
10939;SDS011;5522;42.696;23.494;2024-01-07T11:34:59;1.80;;;1.02;;
10939;SDS011;5522;42.696;23.494;2024-01-07T11:37:27;3.60;;;1.00;;
10939;SDS011;5522;42.696;23.494;2024-01-07T11:40:03;3.17;;;1.10;;
10939;SDS011;5522;42.696;23.494;2024-01-07T11:42:55;2.75;;;0.95;;
10939;SDS011;5522;42.696;23.494;2024-01-07T11:45:22;1.75;;;0.80;;
10939;SDS011;5522;42.696;23.494;2024-01-07T11:47:49;11.30;;;7.65;;
10939;SDS011;5522;42.696;23.494;2024-01-07T11:50:22;4.05;;;2.50;;
10939;SDS011;5522;42.696;23.494;2024-01-07T11:52:49;13.63;;;7.60;;
10939;SDS011;5522;42.696;23.494;2024-01-07T11:55:22;6.00;;;5.03;;
10939;SDS011;5522;42.696;23.494;2024-01-07T11:57:51;0.95;;;0.60;;
10939;SDS011;5522;42.696;23.494;2024-01-07T12:00:18;3.85;;;0.90;;
10939;SDS011;5522;42.696;23.494;2024-01-07T12:02:50;6.20;;;0.73;;
10939;SDS011;5522;42.696;23.494;2024-01-07T12:05:17;2.17;;;1.00;;
10939;SDS011;5522;42.696;23.494;2024-01-07T12:07:46;2.90;;;1.15;;
10939;SDS011;5522;42.696;23.494;2024-01-07T12:10:19;0.95;;;0.40;;
10939;SDS011;5522;42.696;23.494;2024-01-07T12:12:47;2.53;;;0.73;;
10939;SDS011;5522;42.696;23.494;2024-01-07T12:18:12;2.05;;;0.20;;
10939;SDS011;5522;42.696;23.494;2024-01-07T12:20:54;1.17;;;0.40;;
10939;SDS011;5522;42.696;23.494;2024-01-07T12:23:21;0.98;;;0.50;;
10939;SDS011;5522;42.696;23.494;2024-01-07T12:25:51;2.78;;;0.60;;
10939;SDS011;5522;42.696;23.494;2024-01-07T12:28:20;3.47;;;0.40;;
10939;SDS011;5522;42.696;23.494;2024-01-07T12:30:50;1.38;;;0.50;;
10939;SDS011;5522;42.696;23.494;2024-01-07T12:33:21;0.40;;;0.32;;
10939;SDS011;5522;42.696;23.494;2024-01-07T12:35:49;2.63;;;0.50;;
10939;SDS011;5522;42.696;23.494;2024-01-07T12:38:22;1.40;;;0.70;;
10939;SDS011;5522;42.696;23.494;2024-01-07T12:40:50;4.78;;;1.48;;
10939;SDS011;5522;42.696;23.494;2024-01-07T12:43:22;5.32;;;4.18;;
10939;SDS011;5522;42.696;23.494;2024-01-07T12:45:49;7.38;;;1.23;;
10939;SDS011;5522;42.696;23.494;2024-01-07T12:48:19;1.88;;;0.98;;
10939;SDS011;5522;42.696;23.494;2024-01-07T12:50:48;1.55;;;0.80;;
10939;SDS011;5522;42.696;23.494;2024-01-07T12:53:15;4.20;;;1.13;;
10939;SDS011;5522;42.696;23.494;2024-01-07T12:55:44;8.65;;;2.22;;
10939;SDS011;5522;42.696;23.494;2024-01-07T12:58:17;98.22;;;54.47;;
10939;SDS011;5522;42.696;23.494;2024-01-07T13:00:49;41.53;;;22.92;;
10939;SDS011;5522;42.696;23.494;2024-01-07T13:03:16;16.63;;;9.65;;
10939;SDS011;5522;42.696;23.494;2024-01-07T13:05:47;11.55;;;4.15;;
10939;SDS011;5522;42.696;23.494;2024-01-07T13:08:26;5.68;;;4.03;;
10939;SDS011;5522;42.696;23.494;2024-01-07T13:10:58;5.90;;;4.28;;
10939;SDS011;5522;42.696;23.494;2024-01-07T13:13:37;8.60;;;5.13;;
10939;SDS011;5522;42.696;23.494;2024-01-07T13:16:04;6.60;;;5.35;;
10939;SDS011;5522;42.696;23.494;2024-01-07T13:18:35;6.82;;;4.88;;
10939;SDS011;5522;42.696;23.494;2024-01-07T13:21:04;6.47;;;4.72;;
10939;SDS011;5522;42.696;23.494;2024-01-07T13:23:33;16.25;;;7.47;;
10939;SDS011;5522;42.696;23.494;2024-01-07T13:26:09;16.23;;;8.63;;
10939;SDS011;5522;42.696;23.494;2024-01-07T13:28:35;24.20;;;10.88;;
10939;SDS011;5522;42.696;23.494;2024-01-07T13:31:02;14.90;;;8.05;;
10939;SDS011;5522;42.696;23.494;2024-01-07T13:33:31;6.10;;;3.90;;
10939;SDS011;5522;42.696;23.494;2024-01-07T13:36:06;9.57;;;3.92;;
10939;SDS011;5522;42.696;23.494;2024-01-07T13:38:36;8.68;;;5.03;;
10939;SDS011;5522;42.696;23.494;2024-01-07T13:41:06;16.02;;;11.15;;
10939;SDS011;5522;42.696;23.494;2024-01-07T13:43:33;17.45;;;11.40;;
10939;SDS011;5522;42.696;23.494;2024-01-07T13:46:02;13.07;;;8.85;;
10939;SDS011;5522;42.696;23.494;2024-01-07T13:48:34;7.70;;;5.88;;
10939;SDS011;5522;42.696;23.494;2024-01-07T13:51:05;10.18;;;6.70;;
10939;SDS011;5522;42.696;23.494;2024-01-07T13:53:35;23.08;;;13.80;;
10939;SDS011;5522;42.696;23.494;2024-01-07T13:56:05;12.45;;;8.30;;
10939;SDS011;5522;42.696;23.494;2024-01-07T13:58:33;14.55;;;9.20;;
10939;SDS011;5522;42.696;23.494;2024-01-07T14:01:03;9.93;;;6.55;;
10939;SDS011;5522;42.696;23.494;2024-01-07T14:03:33;14.52;;;7.25;;
10939;SDS011;5522;42.696;23.494;2024-01-07T14:06:03;21.63;;;10.35;;
10939;SDS011;5522;42.696;23.494;2024-01-07T14:08:35;40.08;;;22.50;;
10939;SDS011;5522;42.696;23.494;2024-01-07T14:11:02;41.00;;;22.60;;
10939;SDS011;5522;42.696;23.494;2024-01-07T14:13:31;53.65;;;29.45;;
10939;SDS011;5522;42.696;23.494;2024-01-07T14:15:58;43.25;;;25.35;;
10939;SDS011;5522;42.696;23.494;2024-01-07T14:18:27;42.47;;;25.88;;
10939;SDS011;5522;42.696;23.494;2024-01-07T14:20:57;50.28;;;26.27;;
10939;SDS011;5522;42.696;23.494;2024-01-07T14:23:26;54.42;;;27.75;;
10939;SDS011;5522;42.696;23.494;2024-01-07T14:26:09;52.30;;;27.10;;
10939;SDS011;5522;42.696;23.494;2024-01-07T14:28:40;44.67;;;25.65;;
10939;SDS011;5522;42.696;23.494;2024-01-07T14:31:09;44.92;;;26.90;;
10939;SDS011;5522;42.696;23.494;2024-01-07T14:33:38;36.40;;;20.27;;
10939;SDS011;5522;42.696;23.494;2024-01-07T14:36:07;30.70;;;17.77;;
10939;SDS011;5522;42.696;23.494;2024-01-07T14:38:43;28.80;;;14.23;;
10939;SDS011;5522;42.696;23.494;2024-01-07T14:41:11;30.10;;;16.25;;